Time;durP1;ratioP1;P1;durP2;ratioP2;P2;SDS_P1;SDS_P2;PMS_P1;PMS_P2;Temp;Humidity;BMP_temperature;BMP_pressure;BME280_temperature;BME280_humidity;BME280_pressure;Samples;Min_cycle;Max_cycle;Signal;HPM_P1;HPM_P2
2021/11/21 00:00:16;;;;;;;25.13;13.23;;;;;;;1.62;100.00;96131.03;5017675;28;20113;-76
2021/11/21 00:02:47;;;;;;;19.88;12.85;;;;;;;1.53;100.00;96126.50;5034555;28;20059;-75
2021/11/21 00:05:14;;;;;;;21.00;11.77;;;;;;;1.51;100.00;96124.03;5001355;28;20049;-75
2021/11/21 00:07:40;;;;;;;20.30;11.70;;;;;;;1.48;100.00;96134.59;5031350;28;20044;-76
2021/11/21 00:10:06;;;;;;;23.37;12.87;;;;;;;1.43;100.00;96126.31;5001619;28;20116;-76
2021/11/21 00:12:32;;;;;;;20.67;12.47;;;;;;;1.37;100.00;96131.91;5002230;28;20025;-76
2021/11/21 00:14:58;;;;;;;19.53;11.67;;;;;;;1.39;100.00;96135.22;5001774;28;20044;-75
2021/11/21 00:17:23;;;;;;;20.47;12.27;;;;;;;1.33;100.00;96138.22;5024887;28;20044;-75
2021/11/21 00:19:49;;;;;;;17.10;10.13;;;;;;;1.32;100.00;96142.59;5047115;28;20445;-75
2021/11/21 00:22:16;;;;;;;19.03;11.23;;;;;;;1.25;100.00;96141.34;4997286;28;20429;-76
2021/11/21 00:24:43;;;;;;;20.00;12.13;;;;;;;1.29;100.00;96132.44;5020190;28;20089;-76
2021/11/21 00:27:10;;;;;;;21.40;12.00;;;;;;;1.30;100.00;96125.47;5002946;28;20029;-75
2021/11/21 00:29:36;;;;;;;20.03;11.90;;;;;;;1.19;100.00;96121.03;5009376;28;20068;-76
2021/11/21 00:32:03;;;;;;;20.37;12.00;;;;;;;1.24;100.00;96128.50;4999914;28;20020;-74
2021/11/21 00:34:28;;;;;;;20.03;12.33;;;;;;;1.23;100.00;96126.84;5018961;28;20029;-75
2021/11/21 00:36:55;;;;;;;18.93;11.93;;;;;;;1.27;100.00;96117.91;5021231;28;20138;-75
2021/11/21 00:39:21;;;;;;;18.40;10.77;;;;;;;1.24;100.00;96115.53;5023800;28;20099;-77
2021/11/21 00:41:47;;;;;;;17.73;10.93;;;;;;;1.24;100.00;96120.72;5005778;28;20021;-75
2021/11/21 00:44:13;;;;;;;17.17;11.40;;;;;;;1.21;100.00;96110.56;5002359;28;20032;-76
2021/11/21 00:46:38;;;;;;;18.13;11.57;;;;;;;1.28;100.00;96111.81;5030306;28;20095;-76
2021/11/21 00:49:12;;;;;;;19.87;11.50;;;;;;;1.29;100.00;96105.69;5018593;28;20083;-75
2021/11/21 00:51:39;;;;;;;21.47;12.27;;;;;;;1.29;100.00;96097.94;5031550;28;20037;-76
2021/11/21 00:54:23;;;;;;;22.30;13.13;;;;;;;1.26;100.00;96086.00;5014039;28;20143;-76
2021/11/21 00:56:50;;;;;;;24.70;13.73;;;;;;;1.23;100.00;96091.41;5023890;28;20163;-76
2021/11/21 00:59:20;;;;;;;33.33;14.97;;;;;;;1.24;100.00;96094.81;5032193;28;20111;-75
2021/11/21 01:01:50;;;;;;;25.60;12.27;;;;;;;1.22;100.00;96094.09;5015509;28;20029;-76
2021/11/21 01:04:17;;;;;;;25.03;11.50;;;;;;;1.02;100.00;96087.69;5014079;28;20025;-76
2021/11/21 01:06:43;;;;;;;19.87;9.40;;;;;;;0.87;100.00;96092.13;5007600;28;20478;-75
2021/11/21 01:09:09;;;;;;;18.90;9.70;;;;;;;0.78;100.00;96083.25;5042635;28;20033;-76
2021/11/21 01:11:35;;;;;;;18.00;10.53;;;;;;;0.75;100.00;96072.28;5013703;28;20454;-75
2021/11/21 01:14:02;;;;;;;31.37;9.13;;;;;;;0.68;100.00;96075.25;5019568;28;20094;-75
2021/11/21 01:16:28;;;;;;;58.43;12.23;;;;;;;0.69;100.00;96069.16;5038572;28;20040;-75
2021/11/21 01:18:54;;;;;;;91.80;13.10;;;;;;;0.70;100.00;96070.81;5021825;28;20037;-76
2021/11/21 01:21:19;;;;;;;65.93;11.63;;;;;;;0.77;100.00;96065.22;5012888;28;20029;-76
2021/11/21 01:23:45;;;;;;;141.83;14.37;;;;;;;0.61;100.00;96062.84;5019976;28;20024;-75
2021/11/21 01:26:11;;;;;;;96.50;13.20;;;;;;;0.63;100.00;96079.09;5023815;28;20029;-76
2021/11/21 01:28:36;;;;;;;127.23;13.60;;;;;;;0.51;100.00;96072.16;5018780;28;20040;-75
2021/11/21 01:31:02;;;;;;;123.17;13.17;;;;;;;0.60;100.00;96072.34;5019326;28;20032;-75
2021/11/21 01:33:29;;;;;;;117.90;13.60;;;;;;;0.57;100.00;96053.59;5036722;28;20041;-76
2021/11/21 01:35:55;;;;;;;104.27;13.63;;;;;;;0.58;100.00;96056.13;5047766;28;20082;-75
2021/11/21 01:38:21;;;;;;;133.73;14.63;;;;;;;0.59;100.00;96056.94;5011096;28;20504;-75
2021/11/21 01:40:47;;;;;;;64.73;11.70;;;;;;;0.65;100.00;96047.00;5024526;28;20716;-76
2021/11/21 01:43:14;;;;;;;93.23;13.47;;;;;;;0.61;100.00;96045.56;5030018;28;20456;-75
2021/11/21 01:45:41;;;;;;;65.93;12.93;;;;;;;0.66;100.00;96047.81;5017225;28;20470;-75
2021/11/21 01:48:06;;;;;;;69.23;11.43;;;;;;;0.67;100.00;96050.31;5022596;28;20547;-75
2021/11/21 01:50:35;;;;;;;139.27;14.97;;;;;;;0.60;100.00;96043.88;5022975;28;20039;-75
2021/11/21 01:53:02;;;;;;;107.77;13.63;;;;;;;0.69;100.00;96035.50;5014582;28;20803;-75
2021/11/21 01:55:29;;;;;;;83.57;13.10;;;;;;;0.69;100.00;96038.09;5027706;28;20016;-75
2021/11/21 01:57:57;;;;;;;83.67;13.07;;;;;;;0.62;100.00;96033.44;5031312;28;20036;-75
2021/11/21 02:00:26;;;;;;;139.73;14.03;;;;;;;0.51;100.00;96035.94;5017657;28;20025;-76
2021/11/21 02:02:52;;;;;;;78.17;12.43;;;;;;;0.52;100.00;96024.66;5016772;28;20547;-75
2021/11/21 02:05:18;;;;;;;120.70;13.77;;;;;;;0.51;100.00;96015.22;5022251;28;20542;-75
2021/11/21 02:07:46;;;;;;;75.67;12.27;;;;;;;0.52;100.00;96030.63;5028946;28;20586;-76
2021/11/21 02:10:15;;;;;;;63.33;12.30;;;;;;;0.54;100.00;96027.94;5029066;28;21004;-75
2021/11/21 02:12:41;;;;;;;39.50;9.53;;;;;;;0.41;100.00;96031.38;4996514;28;20508;-75
2021/11/21 02:15:09;;;;;;;82.43;12.83;;;;;;;0.50;100.00;96034.25;5037735;28;20497;-75
2021/11/21 02:17:36;;;;;;;41.60;11.17;;;;;;;0.54;100.00;96028.78;5004014;28;20463;-76
2021/11/21 02:20:04;;;;;;;83.67;12.60;;;;;;;0.52;100.00;96037.59;5022190;28;20464;-76
2021/11/21 02:22:30;;;;;;;74.00;11.50;;;;;;;0.44;100.00;96025.16;5013805;28;20479;-76
2021/11/21 02:24:58;;;;;;;71.83;11.47;;;;;;;0.50;100.00;96027.31;5012752;28;20443;-75
2021/11/21 02:27:28;;;;;;;53.27;11.77;;;;;;;0.50;100.00;96023.91;5045052;28;20540;-75
2021/11/21 02:29:54;;;;;;;38.83;10.73;;;;;;;0.48;100.00;96018.84;5015234;28;20032;-76
2021/11/21 02:32:20;;;;;;;130.37;15.30;;;;;;;0.53;100.00;96016.75;5015181;28;20109;-76
2021/11/21 02:34:46;;;;;;;55.30;11.70;;;;;;;0.59;100.00;96018.13;5004991;28;20415;-75
2021/11/21 02:37:11;;;;;;;52.27;11.87;;;;;;;0.68;100.00;96013.16;5019818;28;20079;-75
2021/11/21 02:39:38;;;;;;;50.70;11.53;;;;;;;0.76;100.00;96006.63;5013380;28;20021;-75
2021/11/21 02:42:05;;;;;;;125.50;15.47;;;;;;;0.74;100.00;96011.06;5015244;28;20032;-75
2021/11/21 02:44:31;;;;;;;162.03;17.83;;;;;;;0.72;100.00;96005.19;5019887;28;20056;-75
2021/11/21 02:46:57;;;;;;;85.10;15.13;;;;;;;0.75;100.00;95999.81;5019249;28;21357;-75
2021/11/21 02:49:23;;;;;;;78.27;13.43;;;;;;;0.85;100.00;96003.41;5031245;28;20033;-76
2021/11/21 02:51:49;;;;;;;118.77;15.77;;;;;;;0.79;100.00;95996.06;5014685;28;20043;-75
2021/11/21 02:54:14;;;;;;;146.93;15.30;;;;;;;0.79;100.00;95983.94;5020359;28;20675;-75
2021/11/21 02:56:40;;;;;;;118.20;14.87;;;;;;;0.87;100.00;95983.41;5006221;28;20036;-76
2021/11/21 02:59:06;;;;;;;147.43;15.90;;;;;;;0.73;100.00;95976.59;5024776;28;20528;-75
2021/11/21 03:01:32;;;;;;;44.00;12.20;;;;;;;0.75;100.00;95984.28;5035365;28;20040;-75
2021/11/21 03:03:58;;;;;;;39.47;12.30;;;;;;;0.77;100.00;95977.22;5019328;28;20484;-75
2021/11/21 03:06:24;;;;;;;74.50;15.80;;;;;;;0.80;100.00;95974.41;5012085;28;20104;-76
2021/11/21 03:08:50;;;;;;;77.10;15.43;;;;;;;0.75;100.00;95968.75;5014502;28;20100;-75
2021/11/21 03:11:32;;;;;;;41.10;13.30;;;;;;;0.91;100.00;95966.75;4994364;28;20061;-75
2021/11/21 03:14:00;;;;;;;28.57;12.83;;;;;;;0.93;100.00;95960.50;5037241;28;20030;-76
2021/11/21 03:16:27;;;;;;;32.77;13.10;;;;;;;0.98;100.00;95959.38;5038648;28;20021;-75
2021/11/21 03:18:53;;;;;;;82.67;14.13;;;;;;;0.95;100.00;95931.94;5043292;28;20056;-75
2021/11/21 03:21:19;;;;;;;43.20;13.03;;;;;;;0.86;100.00;95940.34;5018293;28;20079;-76
2021/11/21 03:23:44;;;;;;;46.80;12.97;;;;;;;0.97;100.00;95932.63;5008985;28;20033;-76
2021/11/21 03:26:10;;;;;;;72.17;14.80;;;;;;;0.93;100.00;95939.78;5007744;28;20356;-75
2021/11/21 03:28:36;;;;;;;84.40;15.33;;;;;;;0.85;100.00;95936.09;5001940;28;20121;-76
2021/11/21 03:31:02;;;;;;;63.93;15.10;;;;;;;0.97;100.00;95935.22;5017083;28;20064;-76
2021/11/21 03:33:29;;;;;;;32.70;13.13;;;;;;;0.99;100.00;95930.78;5012678;28;20116;-75
2021/11/21 03:35:54;;;;;;;27.80;12.90;;;;;;;1.04;100.00;95928.72;5044768;28;20017;-76
2021/11/21 03:38:20;;;;;;;43.40;13.57;;;;;;;1.09;100.00;95930.97;5040234;28;20660;-75
2021/11/21 03:40:46;;;;;;;29.03;13.00;;;;;;;1.00;100.00;95926.44;5024618;28;20079;-75
2021/11/21 03:43:12;;;;;;;79.60;13.87;;;;;;;0.87;100.00;95923.88;5000443;28;20690;-75
2021/11/21 03:45:37;;;;;;;42.27;12.40;;;;;;;0.95;100.00;95934.53;5031508;28;20489;-75
2021/11/21 03:48:04;;;;;;;62.30;13.40;;;;;;;0.81;100.00;95937.25;5024306;28;20411;-75
2021/11/21 03:50:29;;;;;;;54.20;12.80;;;;;;;0.74;100.00;95923.91;5003908;28;20025;-76
2021/11/21 03:52:55;;;;;;;67.23;13.17;;;;;;;0.70;100.00;95914.69;5010180;28;20135;-76
2021/11/21 03:55:23;;;;;;;41.53;13.07;;;;;;;0.72;100.00;95919.78;4999716;28;20021;-76
2021/11/21 03:57:49;;;;;;;58.10;14.07;;;;;;;0.65;100.00;95911.63;5010860;28;20036;-75
2021/11/21 04:00:19;;;;;;;55.63;13.57;;;;;;;0.67;100.00;95910.56;4998261;28;20024;-75
2021/11/21 04:02:46;;;;;;;45.57;13.33;;;;;;;0.74;100.00;95910.13;4996359;28;20738;-75
2021/11/21 04:05:13;;;;;;;55.37;14.90;;;;;;;0.74;100.00;95916.16;5018897;28;20033;-76
2021/11/21 04:07:40;;;;;;;121.87;18.27;;;;;;;0.83;100.00;95917.25;5038556;28;20032;-76
2021/11/21 04:10:07;;;;;;;89.63;17.13;;;;;;;0.88;100.00;95912.59;5023616;28;20024;-75
2021/11/21 04:12:33;;;;;;;100.50;17.73;;;;;;;0.88;100.00;95907.41;4996900;28;20038;-76
2021/11/21 04:14:59;;;;;;;127.27;18.90;;;;;;;0.89;100.00;95909.06;5034652;28;20092;-76
2021/11/21 04:17:24;;;;;;;89.97;16.93;;;;;;;0.87;100.00;95900.56;5001180;28;20125;-75
2021/11/21 04:19:50;;;;;;;78.20;14.57;;;;;;;0.85;100.00;95884.34;5008492;28;20112;-75
2021/11/21 04:22:16;;;;;;;94.63;14.53;;;;;;;0.86;100.00;95888.56;5028493;28;20025;-75
2021/11/21 04:24:42;;;;;;;47.83;14.40;;;;;;;0.91;100.00;95886.50;5019522;28;20091;-75
2021/11/21 04:27:07;;;;;;;115.93;17.60;;;;;;;0.81;100.00;95890.66;5005970;28;20025;-75
2021/11/21 04:29:34;;;;;;;94.47;16.50;;;;;;;0.81;100.00;95888.91;5004758;28;20401;-75
2021/11/21 04:32:00;;;;;;;124.57;17.67;;;;;;;0.77;100.00;95886.63;5004681;28;20026;-75
2021/11/21 04:34:27;;;;;;;149.17;19.20;;;;;;;0.77;100.00;95881.44;5033366;28;20021;-75
2021/11/21 04:36:54;;;;;;;120.20;17.90;;;;;;;0.80;100.00;95873.47;4998577;28;20030;-75
2021/11/21 04:39:22;;;;;;;163.23;19.37;;;;;;;0.72;100.00;95873.19;5024858;28;20451;-75
2021/11/21 04:41:48;;;;;;;159.97;18.47;;;;;;;0.72;100.00;95858.50;5042184;28;20032;-75
2021/11/21 04:44:13;;;;;;;86.13;18.10;;;;;;;0.73;100.00;95859.31;5006185;28;20064;-76
2021/11/21 04:46:40;;;;;;;164.73;19.57;;;;;;;0.65;100.00;95865.84;5021513;28;20034;-75
2021/11/21 04:49:06;;;;;;;87.73;15.63;;;;;;;0.70;100.00;95852.56;5023317;28;20540;-76
2021/11/21 04:51:32;;;;;;;206.23;20.87;;;;;;;0.62;100.00;95854.91;5017023;28;20044;-76
2021/11/21 04:53:58;;;;;;;211.40;20.53;;;;;;;0.57;100.00;95852.63;5003714;28;20056;-75
2021/11/21 04:56:24;;;;;;;207.23;20.60;;;;;;;0.46;100.00;95848.19;5016988;28;20087;-75
2021/11/21 04:58:50;;;;;;;139.23;17.20;;;;;;;0.54;100.00;95847.69;5020995;28;20489;-77
2021/11/21 05:01:16;;;;;;;143.27;17.00;;;;;;;0.46;100.00;95842.19;5027407;28;20030;-75
2021/11/21 05:03:42;;;;;;;177.23;19.87;;;;;;;0.42;100.00;95844.16;5050933;28;20436;-75
2021/11/21 05:06:08;;;;;;;153.63;19.23;;;;;;;0.30;100.00;95849.34;5026243;28;20033;-75
2021/11/21 05:08:34;;;;;;;201.57;17.83;;;;;;;0.36;100.00;95849.75;5034102;28;20033;-75
2021/11/21 05:11:00;;;;;;;175.53;19.97;;;;;;;0.30;100.00;95863.13;5040290;28;20037;-75
2021/11/21 05:13:26;;;;;;;160.33;18.47;;;;;;;0.34;100.00;95859.41;5016725;28;20041;-74
2021/11/21 05:15:52;;;;;;;77.70;15.23;;;;;;;0.34;100.00;95843.88;5031764;28;20071;-75
2021/11/21 05:18:17;;;;;;;86.67;15.23;;;;;;;0.38;100.00;95852.25;5014473;28;20471;-75
2021/11/21 05:20:43;;;;;;;96.00;15.87;;;;;;;0.42;100.00;95856.28;5021688;28;20030;-75
2021/11/21 05:23:09;;;;;;;126.47;16.03;;;;;;;0.32;100.00;95850.09;5029681;28;20025;-76
2021/11/21 05:25:35;;;;;;;80.67;15.70;;;;;;;0.36;100.00;95856.69;5012226;28;20043;-75
2021/11/21 05:28:01;;;;;;;141.50;18.13;;;;;;;0.34;100.00;95851.66;5026814;28;20021;-76
2021/11/21 05:30:27;;;;;;;75.40;14.90;;;;;;;0.37;100.00;95842.81;5016397;28;20099;-75
2021/11/21 05:32:52;;;;;;;89.97;15.63;;;;;;;0.27;100.00;95847.84;5051140;28;20479;-75
2021/11/21 05:35:19;;;;;;;70.10;14.10;;;;;;;0.29;100.00;95850.31;5027727;28;20448;-75
2021/11/21 05:37:46;;;;;;;132.53;17.67;;;;;;;0.33;100.00;95846.56;5025938;28;20055;-75
2021/11/21 05:40:13;;;;;;;71.20;15.27;;;;;;;0.36;100.00;95838.59;5041572;28;20432;-75
2021/11/21 05:42:39;;;;;;;56.87;13.80;;;;;;;0.20;100.00;95839.69;4996398;28;20468;-75
2021/11/21 05:45:05;;;;;;;71.03;13.60;;;;;;;0.35;100.00;95831.78;5022175;28;20452;-75
2021/11/21 05:47:32;;;;;;;95.33;16.47;;;;;;;0.33;100.00;95838.81;5011726;28;20033;-75
2021/11/21 05:49:58;;;;;;;59.77;13.67;;;;;;;0.26;100.00;95837.59;5015204;28;20432;-76
2021/11/21 05:52:24;;;;;;;47.83;13.27;;;;;;;0.30;100.00;95833.84;5039132;28;20464;-75
2021/11/21 05:54:50;;;;;;;96.20;14.47;;;;;;;0.22;100.00;95842.97;5028787;28;20447;-76
2021/11/21 05:57:18;;;;;;;99.97;16.10;;;;;;;0.33;100.00;95839.63;5013352;28;21006;-75
2021/11/21 05:59:44;;;;;;;86.67;13.53;;;;;;;0.35;100.00;95837.78;5003358;28;20510;-75
2021/11/21 06:02:10;;;;;;;43.07;11.97;;;;;;;0.42;100.00;95838.19;5006144;28;20460;-75
2021/11/21 06:04:36;;;;;;;76.80;13.57;;;;;;;0.28;100.00;95846.91;5011339;28;20037;-76
2021/11/21 06:07:02;;;;;;;48.07;13.10;;;;;;;0.37;100.00;95835.91;5039996;28;20388;-75
2021/11/21 06:09:28;;;;;;;48.83;12.73;;;;;;;0.37;100.00;95840.25;5039637;28;20033;-75
2021/11/21 06:11:54;;;;;;;108.00;14.03;;;;;;;0.20;100.00;95838.81;5015225;28;20105;-75
2021/11/21 06:14:21;;;;;;;59.30;11.90;;;;;;;0.25;100.00;95839.34;5014874;28;20456;-75
2021/11/21 06:16:48;;;;;;;95.47;14.20;;;;;;;0.18;100.00;95836.34;5019164;28;20490;-75
2021/11/21 06:19:14;;;;;;;102.13;13.70;;;;;;;0.22;100.00;95827.44;5043600;28;20448;-75
2021/11/21 06:21:40;;;;;;;65.17;13.13;;;;;;;0.15;100.00;95831.38;5016075;28;21073;-76
2021/11/21 06:24:07;;;;;;;60.07;12.93;;;;;;;0.08;100.00;95835.34;5020034;28;20450;-75
2021/11/21 06:26:33;;;;;;;84.63;12.87;;;;;;;0.02;100.00;95824.59;5047708;28;20044;-75
2021/11/21 06:28:59;;;;;;;45.53;11.20;;;;;;;0.04;100.00;95823.56;5027110;28;20538;-75
2021/11/21 06:31:25;;;;;;;32.97;12.60;;;;;;;0.12;100.00;95818.66;5021297;28;20471;-75
2021/11/21 06:33:52;;;;;;;74.03;14.50;;;;;;;0.14;100.00;95810.81;5026617;28;20119;-75
2021/11/21 06:36:17;;;;;;;55.50;12.63;;;;;;;0.13;100.00;95817.72;5016704;28;20116;-74
2021/11/21 06:38:43;;;;;;;64.30;12.07;;;;;;;0.03;100.00;95819.28;5006937;28;20550;-74
2021/11/21 06:41:09;;;;;;;58.63;11.83;;;;;;;0.03;100.00;95815.88;5021754;28;20021;-75
2021/11/21 06:43:35;;;;;;;42.80;10.40;;;;;;;-0.02;100.00;95818.78;4998588;28;20056;-75
2021/11/21 06:46:01;;;;;;;47.93;11.03;;;;;;;-0.14;100.00;95823.03;5023590;28;20025;-76
2021/11/21 06:48:29;;;;;;;42.77;10.67;;;;;;;-0.06;100.00;95832.88;5033147;28;20539;-75
2021/11/21 06:50:55;;;;;;;31.33;10.53;;;;;;;0.00;100.00;95827.28;5013742;28;20039;-76
2021/11/21 06:53:22;;;;;;;33.30;11.00;;;;;;;0.04;100.00;95836.47;5020614;28;21245;-75
2021/11/21 06:55:48;;;;;;;39.07;11.43;;;;;;;-0.01;100.00;95841.13;5012690;28;20021;-77
2021/11/21 06:58:13;;;;;;;70.43;11.50;;;;;;;-0.03;100.00;95837.84;5017190;28;20436;-75
2021/11/21 07:00:39;;;;;;;32.43;11.37;;;;;;;0.02;100.00;95829.75;5038175;28;20988;-76
2021/11/21 07:03:05;;;;;;;46.07;11.33;;;;;;;0.09;100.00;95826.63;5005044;28;20034;-75
2021/11/21 07:05:31;;;;;;;29.13;11.27;;;;;;;0.19;100.00;95822.47;5035349;28;20713;-75
2021/11/21 07:07:57;;;;;;;43.40;11.37;;;;;;;0.22;100.00;95824.03;5011329;28;20028;-75
2021/11/21 07:10:24;;;;;;;35.97;11.77;;;;;;;0.16;100.00;95827.88;5018788;28;20035;-76
2021/11/21 07:12:50;;;;;;;30.23;11.13;;;;;;;0.20;100.00;95834.50;5023601;28;20499;-75
2021/11/21 07:15:16;;;;;;;39.73;11.27;;;;;;;0.21;100.00;95836.16;5024580;28;20452;-75
2021/11/21 07:17:44;;;;;;;66.33;11.90;;;;;;;0.24;100.00;95840.28;5040327;28;20032;-75
2021/11/21 07:20:15;;;;;;;37.53;11.83;;;;;;;0.26;100.00;95838.41;5035934;28;20586;-74
2021/11/21 07:22:46;;;;;;;44.87;10.80;;;;;;;0.26;100.00;95835.00;5035006;28;20480;-75
2021/11/21 07:25:12;;;;;;;50.30;12.83;;;;;;;0.22;100.00;95832.63;5044237;28;20040;-75
2021/11/21 07:27:41;;;;;;;61.47;12.20;;;;;;;0.25;100.00;95826.41;5010433;28;20455;-75
2021/11/21 07:30:07;;;;;;;42.93;12.40;;;;;;;0.21;100.00;95830.97;5014860;28;20513;-75
2021/11/21 07:32:33;;;;;;;64.90;13.00;;;;;;;0.14;100.00;95828.94;5003926;28;20492;-75
2021/11/21 07:34:58;;;;;;;40.17;11.10;;;;;;;0.16;100.00;95833.03;5032004;28;20451;-73
2021/11/21 07:37:24;;;;;;;52.77;12.23;;;;;;;0.23;100.00;95842.06;5024256;28;20608;-76
2021/11/21 07:39:50;;;;;;;50.90;12.33;;;;;;;0.23;100.00;95830.84;5027286;28;20000;-75
2021/11/21 07:42:16;;;;;;;46.17;14.30;;;;;;;0.25;100.00;95841.94;5008960;28;20040;-75
2021/11/21 07:44:42;;;;;;;37.40;11.50;;;;;;;0.26;100.00;95842.75;5024551;28;20025;-75
2021/11/21 07:47:08;;;;;;;39.07;12.13;;;;;;;0.28;100.00;95835.72;5026192;28;20471;-75
2021/11/21 07:49:33;;;;;;;34.00;12.40;;;;;;;0.29;100.00;95845.13;5032701;28;21131;-75
2021/11/21 07:51:59;;;;;;;42.27;12.30;;;;;;;0.24;100.00;95840.28;5014397;28;20465;-75
2021/11/21 07:54:25;;;;;;;53.73;12.50;;;;;;;0.28;100.00;95846.91;5016776;28;20033;-75
2021/11/21 07:56:50;;;;;;;56.73;15.40;;;;;;;0.38;100.00;95847.09;5014643;28;20047;-75
2021/11/21 07:59:16;;;;;;;47.43;13.70;;;;;;;0.46;100.00;95845.59;5026437;28;20030;-75
2021/11/21 08:01:42;;;;;;;42.40;12.70;;;;;;;0.46;100.00;95847.38;5027025;28;20502;-76
2021/11/21 08:04:10;;;;;;;39.97;12.63;;;;;;;0.50;100.00;95843.63;5012571;28;20119;-75
2021/11/21 08:06:36;;;;;;;37.37;13.03;;;;;;;0.61;100.00;95842.91;5027731;28;20107;-76
2021/11/21 08:09:02;;;;;;;41.07;11.77;;;;;;;0.61;100.00;95835.97;5019572;28;21113;-75
2021/11/21 08:11:28;;;;;;;27.90;12.27;;;;;;;0.72;100.00;95839.56;5027569;28;20311;-76
2021/11/21 08:13:54;;;;;;;41.17;13.00;;;;;;;0.65;100.00;95845.16;5016312;28;20490;-75
2021/11/21 08:16:19;;;;;;;24.23;12.83;;;;;;;0.72;100.00;95836.97;5007796;28;20021;-76
2021/11/21 08:18:45;;;;;;;76.07;22.17;;;;;;;0.82;100.00;95840.53;5015807;28;20448;-75
2021/11/21 08:21:11;;;;;;;58.67;14.27;;;;;;;0.68;100.00;95841.53;5029322;28;20032;-75
2021/11/21 08:23:36;;;;;;;41.20;13.40;;;;;;;0.57;100.00;95852.63;5051783;28;20031;-76
2021/11/21 08:26:02;;;;;;;58.17;12.90;;;;;;;0.45;100.00;95843.13;5023091;28;20107;-75
2021/11/21 08:28:28;;;;;;;37.90;12.30;;;;;;;0.53;100.00;95845.19;5022029;28;20032;-75
2021/11/21 08:30:54;;;;;;;59.30;14.47;;;;;;;0.60;100.00;95842.03;5046336;28;20060;-75
2021/11/21 08:33:19;;;;;;;50.47;13.60;;;;;;;0.50;100.00;95843.63;5049532;28;20060;-75
2021/11/21 08:35:45;;;;;;;32.63;14.87;;;;;;;0.59;100.00;95832.63;5029406;28;20021;-75
2021/11/21 08:38:11;;;;;;;50.93;14.50;;;;;;;0.59;100.00;95832.63;5028045;28;20119;-75
2021/11/21 08:40:36;;;;;;;48.57;12.87;;;;;;;0.52;100.00;95831.41;5022826;28;20026;-75
2021/11/21 08:43:03;;;;;;;45.53;12.23;;;;;;;0.51;100.00;95832.38;4997583;28;20109;-75
2021/11/21 08:45:32;;;;;;;33.97;13.10;;;;;;;0.53;100.00;95830.47;5025115;28;20127;-76
2021/11/21 08:48:00;;;;;;;37.23;12.17;;;;;;;0.53;100.00;95829.66;5004020;28;21004;-75
2021/11/21 08:50:26;;;;;;;40.77;12.07;;;;;;;0.55;100.00;95830.38;5005642;28;20486;-76
2021/11/21 08:52:52;;;;;;;40.43;13.83;;;;;;;0.53;100.00;95829.66;5027911;28;20522;-75
2021/11/21 08:55:18;;;;;;;43.57;13.00;;;;;;;0.49;100.00;95839.41;5007561;28;20476;-75
2021/11/21 08:57:45;;;;;;;48.53;13.17;;;;;;;0.44;100.00;95831.97;5007974;28;20468;-76
2021/11/21 09:00:13;;;;;;;37.00;12.47;;;;;;;0.45;100.00;95831.03;4998846;28;20479;-75
2021/11/21 09:02:40;;;;;;;33.27;11.60;;;;;;;0.49;100.00;95825.63;5018160;28;20471;-75
2021/11/21 09:05:07;;;;;;;52.60;14.33;;;;;;;0.60;100.00;95830.88;5006242;28;20471;-75
2021/11/21 09:07:40;;;;;;;32.57;12.50;;;;;;;0.58;100.00;95833.59;5019563;28;21057;-75
2021/11/21 09:10:09;;;;;;;24.42;12.30;;;;;;;0.66;100.00;95830.44;5020112;28;21032;-76
2021/11/21 09:12:35;;;;;;;29.00;14.10;;;;;;;0.75;100.00;95826.41;5015027;28;20048;-75
2021/11/21 09:15:01;;;;;;;41.33;13.20;;;;;;;0.78;100.00;95829.59;5023970;28;20996;-75
2021/11/21 09:17:26;;;;;;;32.03;14.87;;;;;;;0.76;100.00;95825.44;5024425;28;20448;-75
2021/11/21 09:19:52;;;;;;;38.73;13.63;;;;;;;0.70;100.00;95824.97;5008914;28;20659;-76
2021/11/21 09:22:18;;;;;;;28.20;13.93;;;;;;;0.75;100.00;95823.81;5004155;28;20029;-76
2021/11/21 09:24:44;;;;;;;46.23;14.03;;;;;;;0.73;100.00;95823.06;5027062;28;20052;-75
2021/11/21 09:27:14;;;;;;;39.00;15.63;;;;;;;0.79;100.00;95830.41;5001551;28;20025;-76
2021/11/21 09:29:44;;;;;;;38.03;12.23;;;;;;;0.85;100.00;95822.22;4997535;28;20124;-76
2021/11/21 09:32:11;;;;;;;36.67;13.47;;;;;;;0.84;100.00;95825.72;5030767;28;20108;-75
2021/11/21 09:34:38;;;;;;;46.43;13.20;;;;;;;0.85;100.00;95828.22;5011231;28;20530;-76
2021/11/21 09:37:05;;;;;;;28.40;13.93;;;;;;;0.85;100.00;95828.22;5032049;28;20057;-75
2021/11/21 09:39:31;;;;;;;37.73;12.53;;;;;;;0.88;100.00;95822.00;5026731;28;20025;-75
2021/11/21 09:41:57;;;;;;;32.10;13.97;;;;;;;0.82;100.00;95822.44;5009361;28;20055;-75
2021/11/21 09:44:24;;;;;;;40.17;14.53;;;;;;;0.85;100.00;95814.44;5039164;28;20074;-75
2021/11/21 09:46:52;;;;;;;42.13;14.87;;;;;;;0.89;100.00;95815.88;5027687;28;20529;-75
2021/11/21 09:49:19;;;;;;;40.67;14.53;;;;;;;0.94;100.00;95818.97;5028435;28;20469;-75
2021/11/21 09:51:45;;;;;;;50.07;17.10;;;;;;;0.96;100.00;95816.25;4997780;28;21107;-74
2021/11/21 09:54:12;;;;;;;40.13;13.87;;;;;;;1.02;100.00;95808.88;5004780;28;20472;-75
2021/11/21 09:56:38;;;;;;;52.17;16.07;;;;;;;0.88;100.00;95816.81;5014342;28;20470;-75
2021/11/21 09:59:04;;;;;;;43.30;15.67;;;;;;;0.90;100.00;95814.94;5014538;28;20551;-75
2021/11/21 10:01:41;;;;;;;34.97;15.07;;;;;;;0.96;100.00;95805.91;5036775;28;20029;-75
2021/11/21 10:04:12;;;;;;;30.03;13.67;;;;;;;0.94;100.00;95808.63;5012103;28;20037;-77
2021/11/21 10:06:48;;;;;;;39.27;12.90;;;;;;;0.98;100.00;95806.63;5012014;28;20037;-75
2021/11/21 10:09:18;;;;;;;36.53;14.00;;;;;;;1.03;100.00;95802.75;5012038;28;20519;-75
2021/11/21 10:12:07;;;;;;;30.03;13.13;;;;;;;1.00;100.00;95797.78;5018896;28;20397;-75
2021/11/21 10:14:51;;;;;;;38.73;14.53;;;;;;;1.07;100.00;95795.56;5020281;28;20090;-75
2021/11/21 10:17:17;;;;;;;;;;;;;;;1.11;100.00;95800.44;5029297;28;20032;-75
2021/11/21 10:20:43;;;;;;;37.10;15.60;;;;;;;1.15;100.00;95796.69;5031260;28;19914;-76
2021/11/21 10:23:10;;;;;;;34.27;14.50;;;;;;;1.18;100.00;95791.28;4990669;28;20449;-75
2021/11/21 10:25:39;;;;;;;34.37;13.67;;;;;;;1.27;100.00;95789.75;4965763;28;20125;-76
2021/11/21 10:28:14;;;;;;;56.27;15.60;;;;;;;1.24;100.00;95792.59;4975111;28;20593;-76
2021/11/21 10:31:16;;;;;;;34.67;15.63;;;;;;;1.23;100.00;95779.75;5008964;28;20025;-76
2021/11/21 10:33:49;;;;;;;32.37;13.80;;;;;;;1.34;100.00;95774.59;4999448;28;20037;-76
2021/11/21 10:36:19;;;;;;;38.35;14.55;;;;;;;1.37;100.00;95770.00;4984637;28;20103;-76
2021/11/21 10:38:56;;;;;;;36.07;18.27;;;;;;;1.48;100.00;95766.63;5004399;28;20557;-76
2021/11/21 10:41:28;;;;;;;34.07;13.27;;;;;;;1.38;100.00;95761.31;5007999;28;20037;-75
2021/11/21 10:44:16;;;;;;;27.10;12.10;;;;;;;1.48;100.00;95763.22;5033914;28;20029;-76
2021/11/21 10:46:53;;;;;;;50.47;13.43;;;;;;;1.40;100.00;95766.38;5036449;28;20037;-76
2021/11/21 10:49:36;;;;;;;28.80;12.33;;;;;;;1.47;100.00;95764.97;5029712;28;20049;-77
2021/11/21 10:52:23;;;;;;;30.77;11.63;;;;;;;1.38;100.00;95769.09;5014586;28;20037;-76
2021/11/21 10:54:51;;;;;;;29.70;12.07;;;;;;;1.41;100.00;95776.63;5015487;28;20030;-76
2021/11/21 10:57:26;;;;;;;33.23;11.90;;;;;;;1.44;100.00;95772.16;4998564;28;20556;-76
2021/11/21 10:59:59;;;;;;;31.33;10.57;;;;;;;1.44;100.00;95767.78;5018443;28;20033;-76
2021/11/21 11:02:31;;;;;;;35.00;9.65;;;;;;;1.45;100.00;95763.44;5029887;28;20091;-76
2021/11/21 11:04:59;;;;;;;21.00;10.70;;;;;;;1.51;100.00;95761.22;5005724;28;20372;-76
2021/11/21 11:07:26;;;;;;;31.87;14.20;;;;;;;1.56;100.00;95753.91;5008115;28;20140;-77
2021/11/21 11:09:53;;;;;;;27.63;12.13;;;;;;;1.58;100.00;95754.63;5038436;28;20083;-77
2021/11/21 11:12:21;;;;;;;29.47;11.53;;;;;;;1.57;100.00;95754.72;5006514;28;20041;-76
2021/11/21 11:14:47;;;;;;;32.50;14.63;;;;;;;1.68;100.00;95751.31;5011147;28;20041;-77
2021/11/21 11:17:13;;;;;;;29.27;12.20;;;;;;;1.64;100.00;95746.41;5009797;28;20037;-77